createdAt,value
2023-08-27T00:01:24.892Z,64.60
2023-08-27T00:04:27.876Z,64.70
2023-08-27T00:07:30.968Z,64.70
2023-08-27T00:10:35.613Z,64.90
2023-08-27T00:13:38.633Z,65.20
2023-08-27T00:16:41.622Z,65.30
2023-08-27T00:19:44.614Z,65.70
2023-08-27T00:22:47.965Z,65.80
2023-08-27T00:25:52.356Z,65.90
2023-08-27T00:28:56.989Z,65.90
2023-08-27T00:32:01.933Z,66.00
2023-08-27T00:35:07.686Z,66.20
2023-08-27T00:38:11.007Z,66.20
2023-08-27T00:41:15.531Z,66.50
2023-08-27T00:44:18.562Z,66.80
2023-08-27T00:47:22.076Z,67.00
2023-08-27T00:50:26.566Z,67.20
2023-08-27T00:53:29.943Z,67.40
2023-08-27T00:56:34.830Z,67.60
2023-08-27T00:59:38.217Z,67.80
2023-08-27T01:02:43.969Z,68.00
2023-08-27T01:05:47.442Z,68.20
2023-08-27T01:08:57.308Z,68.30
2023-08-27T01:12:10.200Z,68.50
2023-08-27T01:15:14.226Z,68.70
2023-08-27T01:18:18.003Z,68.60
2023-08-27T01:21:22.770Z,68.70
2023-08-27T01:24:25.776Z,68.80
2023-08-27T01:27:32.076Z,68.90
2023-08-27T01:30:41.402Z,69.10
2023-08-27T01:33:46.464Z,69.10
2023-08-27T01:36:51.366Z,69.40
2023-08-27T01:40:00.313Z,69.40
2023-08-27T01:43:03.386Z,69.50
2023-08-27T01:46:06.436Z,69.50
2023-08-27T01:49:09.414Z,69.50
2023-08-27T01:52:13.807Z,69.50
2023-08-27T01:55:17.032Z,69.60
2023-08-27T01:58:20.202Z,69.70
2023-08-27T02:01:23.247Z,69.80
2023-08-27T02:04:26.381Z,69.80
2023-08-27T02:07:30.834Z,69.80
2023-08-27T02:10:33.978Z,70.00
2023-08-27T02:13:36.998Z,69.90
2023-08-27T02:16:40.378Z,70.00
2023-08-27T02:19:43.616Z,70.00
2023-08-27T02:22:48.057Z,69.90
2023-08-27T02:25:51.329Z,69.80
2023-08-27T02:28:55.373Z,69.80
2023-08-27T02:31:58.461Z,69.70
2023-08-27T02:35:01.722Z,69.80
2023-08-27T02:38:06.200Z,69.90
2023-08-27T02:41:09.320Z,69.90
2023-08-27T02:44:12.437Z,69.90
2023-08-27T02:47:15.451Z,69.90
2023-08-27T02:50:18.501Z,70.00
2023-08-27T02:53:22.939Z,70.20
2023-08-27T02:56:25.942Z,70.30
2023-08-27T02:59:29.053Z,70.20
2023-08-27T03:02:32.143Z,70.30
2023-08-27T03:05:35.268Z,70.20
2023-08-27T03:08:39.736Z,70.20
2023-08-27T03:11:42.784Z,70.20
2023-08-27T03:14:47.130Z,70.20
2023-08-27T03:17:50.451Z,70.30
2023-08-27T03:20:53.759Z,70.40
2023-08-27T03:23:58.252Z,70.40
2023-08-27T03:27:01.429Z,70.40
2023-08-27T03:30:05.311Z,70.40
2023-08-27T03:33:08.568Z,70.30
2023-08-27T03:36:12.065Z,70.50
2023-08-27T03:39:16.690Z,70.50
2023-08-27T03:42:19.885Z,70.60
2023-08-27T03:45:23.609Z,70.70
2023-08-27T03:48:26.717Z,70.90
2023-08-27T03:51:31.059Z,71.00
2023-08-27T03:54:35.731Z,71.00
2023-08-27T03:57:39.619Z,70.90
2023-08-27T04:00:42.895Z,70.90
2023-08-27T04:03:48.540Z,70.80
2023-08-27T04:06:51.642Z,70.80
2023-08-27T04:09:56.171Z,70.90
2023-08-27T04:12:59.587Z,71.00
2023-08-27T04:16:06.099Z,71.00
2023-08-27T04:19:09.769Z,71.10
2023-08-27T04:22:12.858Z,71.40
2023-08-27T04:25:18.289Z,71.70
2023-08-27T04:28:22.014Z,71.80
2023-08-27T04:31:25.915Z,71.90
2023-08-27T04:34:29.542Z,71.80
2023-08-27T04:37:32.734Z,71.70
2023-08-27T04:40:37.513Z,71.70
2023-08-27T04:43:40.779Z,71.70
2023-08-27T04:46:44.179Z,71.60
2023-08-27T04:49:49.576Z,71.60
2023-08-27T04:52:52.730Z,71.50
2023-08-27T04:55:57.255Z,71.50
2023-08-27T04:59:00.579Z,71.50
2023-08-27T05:02:04.309Z,71.30
2023-08-27T05:05:08.406Z,71.20
2023-08-27T05:08:11.478Z,71.00
2023-08-27T05:11:17.700Z,71.00
2023-08-27T05:14:20.792Z,71.10
2023-08-27T05:17:23.892Z,71.10
2023-08-27T05:20:27.680Z,71.40
2023-08-27T05:23:30.722Z,71.40
2023-08-27T05:26:35.223Z,71.40
2023-08-27T05:29:38.239Z,71.40
2023-08-27T05:32:41.540Z,71.40
2023-08-27T05:35:45.131Z,71.50
2023-08-27T05:38:48.329Z,71.20
2023-08-27T05:41:53.156Z,70.90
2023-08-27T05:44:56.389Z,70.50
2023-08-27T05:47:59.927Z,70.40
2023-08-27T05:51:04.178Z,70.30
2023-08-27T05:54:07.470Z,70.30
2023-08-27T05:57:11.949Z,70.10
2023-08-27T06:00:16.526Z,69.30
2023-08-27T06:03:19.714Z,69.30
2023-08-27T06:06:22.804Z,69.20
2023-08-27T06:09:25.875Z,69.00
2023-08-27T06:12:30.818Z,68.20
2023-08-27T06:15:35.727Z,68.20
2023-08-27T06:18:38.930Z,68.00
2023-08-27T06:21:41.959Z,68.30
2023-08-27T06:24:45.525Z,68.00
2023-08-27T06:27:50.166Z,67.80
2023-08-27T06:30:53.314Z,67.80
2023-08-27T06:33:56.480Z,67.30
2023-08-27T06:36:59.557Z,67.20
2023-08-27T06:40:02.761Z,67.10
2023-08-27T06:43:07.298Z,66.10
2023-08-27T06:46:12.603Z,66.10
2023-08-27T06:49:15.748Z,65.60
2023-08-27T06:52:21.118Z,65.70
2023-08-27T06:55:24.386Z,65.70
2023-08-27T06:58:29.220Z,65.20
2023-08-27T07:01:32.435Z,64.70
2023-08-27T07:04:35.683Z,63.90
2023-08-27T07:07:40.038Z,63.70
2023-08-27T07:10:43.203Z,63.70
2023-08-27T07:13:49.493Z,63.70
2023-08-27T07:16:52.864Z,63.00
2023-08-27T07:19:55.959Z,62.80
2023-08-27T07:22:59.866Z,63.20
2023-08-27T07:26:05.037Z,63.00
2023-08-27T07:29:09.664Z,63.10
2023-08-27T07:32:12.717Z,63.00
2023-08-27T07:35:15.936Z,61.70
2023-08-27T07:38:19.049Z,61.30
2023-08-27T07:41:22.178Z,60.60
2023-08-27T07:44:26.780Z,61.30
2023-08-27T07:47:29.834Z,60.60
2023-08-27T07:50:33.135Z,61.00
2023-08-27T07:53:36.193Z,60.90
2023-08-27T07:56:39.412Z,60.10
2023-08-27T07:59:45.987Z,59.30
2023-08-27T08:02:49.219Z,59.10
2023-08-27T08:05:53.068Z,58.30
2023-08-27T08:08:56.142Z,59.00
2023-08-27T08:11:59.274Z,59.00
2023-08-27T08:15:03.674Z,57.60
2023-08-27T08:18:07.048Z,56.60
2023-08-27T08:21:10.318Z,56.80
2023-08-27T08:24:16.503Z,56.70
2023-08-27T08:27:19.974Z,56.50
2023-08-27T08:30:24.727Z,55.80
2023-08-27T08:33:27.890Z,56.00
2023-08-27T08:36:33.044Z,56.10
2023-08-27T08:39:37.402Z,56.00
2023-08-27T08:42:49.033Z,55.20
2023-08-27T08:46:04.720Z,55.30
2023-08-27T08:49:13.289Z,56.00
2023-08-27T08:52:21.191Z,55.70
2023-08-27T08:55:27.334Z,55.40
2023-08-27T08:58:36.337Z,56.40
2023-08-27T09:01:41.315Z,56.10
2023-08-27T09:04:44.549Z,56.50
2023-08-27T09:07:49.358Z,56.80
2023-08-27T09:10:53.661Z,57.10
2023-08-27T09:13:59.176Z,56.90
2023-08-27T09:17:04.225Z,56.50
2023-08-27T09:20:10.342Z,57.50
2023-08-27T09:23:14.565Z,57.90
2023-08-27T09:26:18.365Z,57.00
2023-08-27T09:29:23.233Z,57.50
2023-08-27T09:32:28.089Z,57.70
2023-08-27T09:35:41.643Z,57.50
2023-08-27T09:38:46.279Z,57.50
2023-08-27T09:41:51.316Z,57.00
2023-08-27T09:44:54.586Z,57.20
2023-08-27T09:48:00.013Z,58.20
2023-08-27T09:51:12.619Z,57.20
2023-08-27T09:54:16.941Z,56.60
2023-08-27T09:57:21.042Z,56.10
2023-08-27T10:00:25.887Z,54.90
2023-08-27T10:03:31.442Z,54.80
2023-08-27T10:06:37.010Z,55.90
2023-08-27T10:09:40.137Z,55.00
2023-08-27T10:12:43.446Z,54.80
2023-08-27T10:15:47.270Z,54.70
2023-08-27T10:18:51.863Z,55.00
2023-08-27T10:21:56.089Z,54.50
2023-08-27T10:25:00.128Z,55.10
2023-08-27T10:28:04.240Z,54.60
2023-08-27T10:31:07.587Z,54.40
2023-08-27T10:34:12.383Z,53.00
2023-08-27T10:37:16.581Z,52.90
2023-08-27T10:40:20.423Z,53.50
2023-08-27T10:43:24.794Z,53.00
2023-08-27T10:46:28.022Z,54.00
2023-08-27T10:49:37.293Z,54.30
2023-08-27T10:52:53.587Z,53.30
2023-08-27T10:55:57.153Z,53.90
2023-08-27T10:59:01.016Z,54.10
2023-08-27T11:02:10.212Z,54.00
2023-08-27T11:05:14.724Z,54.80
2023-08-27T11:08:18.244Z,54.60
2023-08-27T11:11:26.458Z,54.60
2023-08-27T11:14:29.546Z,53.20
2023-08-27T11:17:35.102Z,53.60
2023-08-27T11:20:39.490Z,53.70
2023-08-27T11:23:46.654Z,55.20
2023-08-27T11:26:51.467Z,55.10
2023-08-27T11:29:56.561Z,55.30
2023-08-27T11:33:00.317Z,55.20
2023-08-27T11:36:05.365Z,54.60
2023-08-27T11:39:08.690Z,55.10
2023-08-27T11:42:13.787Z,55.00
2023-08-27T11:45:17.806Z,54.90
2023-08-27T11:48:22.176Z,55.20
2023-08-27T11:51:27.323Z,56.50
2023-08-27T11:54:32.893Z,55.10
2023-08-27T11:57:36.352Z,55.70
2023-08-27T12:00:44.243Z,56.20
2023-08-27T12:03:50.496Z,56.50
2023-08-27T12:06:58.332Z,56.70
2023-08-27T12:10:06.798Z,56.90
2023-08-27T12:13:10.893Z,56.10
2023-08-27T12:16:16.827Z,56.00
2023-08-27T12:19:22.208Z,56.50
2023-08-27T12:22:26.936Z,56.40
2023-08-27T12:25:30.282Z,57.30
2023-08-27T12:28:34.542Z,56.20
2023-08-27T12:31:37.873Z,56.90
2023-08-27T12:34:41.733Z,56.20
2023-08-27T12:37:46.196Z,56.00
2023-08-27T12:40:49.385Z,55.70
2023-08-27T12:43:54.388Z,54.70
2023-08-27T12:46:58.072Z,55.10
2023-08-27T12:50:01.301Z,54.70
2023-08-27T12:53:08.058Z,54.60
2023-08-27T12:56:11.309Z,55.00
2023-08-27T12:59:15.466Z,55.00
2023-08-27T13:02:18.644Z,55.50
2023-08-27T13:05:21.881Z,56.30
2023-08-27T13:08:26.837Z,57.00
2023-08-27T13:11:30.737Z,55.70
2023-08-27T13:14:34.524Z,55.40
2023-08-27T13:17:37.665Z,55.40
2023-08-27T13:20:40.760Z,56.00
2023-08-27T13:23:46.450Z,57.00
2023-08-27T13:26:49.527Z,55.50
2023-08-27T13:29:53.139Z,56.40
2023-08-27T13:32:56.447Z,56.90
2023-08-27T13:36:01.127Z,56.90
2023-08-27T13:39:06.171Z,56.90
2023-08-27T13:42:09.523Z,56.70
2023-08-27T13:45:12.664Z,56.80
2023-08-27T13:48:16.766Z,56.70
2023-08-27T13:51:20.682Z,57.70
2023-08-27T13:54:25.252Z,56.30
2023-08-27T13:57:28.523Z,56.20
2023-08-27T14:00:34.481Z,57.00
2023-08-27T14:03:39.611Z,56.30
2023-08-27T14:06:43.449Z,55.70
2023-08-27T14:09:48.199Z,56.00
2023-08-27T14:12:54.082Z,56.10
2023-08-27T14:15:57.273Z,56.30
2023-08-27T14:19:00.385Z,55.80
2023-08-27T14:22:03.510Z,56.20
2023-08-27T14:25:09.445Z,55.30
2023-08-27T14:28:12.571Z,55.60
2023-08-27T14:31:15.960Z,55.90
2023-08-27T14:34:19.185Z,56.40
2023-08-27T14:37:22.300Z,56.70
2023-08-27T14:40:26.865Z,56.90
2023-08-27T14:43:30.132Z,57.30
2023-08-27T14:46:35.451Z,58.00
2023-08-27T14:49:39.245Z,57.90
2023-08-27T14:52:42.470Z,58.70
2023-08-27T14:55:46.937Z,58.00
2023-08-27T14:58:53.787Z,58.60
2023-08-27T15:01:56.781Z,58.70
2023-08-27T15:04:59.904Z,59.60
2023-08-27T15:08:03.580Z,60.70
2023-08-27T15:11:08.528Z,61.90
2023-08-27T15:14:11.837Z,62.10
2023-08-27T15:17:16.126Z,62.20
2023-08-27T15:20:19.426Z,62.60
2023-08-27T15:23:22.594Z,64.50
2023-08-27T15:26:27.049Z,63.80
2023-08-27T15:29:30.441Z,63.90
2023-08-27T15:32:34.131Z,64.40
2023-08-27T15:35:38.918Z,65.30
2023-08-27T15:38:43.188Z,65.60
2023-08-27T15:41:47.865Z,66.60
2023-08-27T15:44:51.256Z,66.80
2023-08-27T15:47:56.960Z,67.00
2023-08-27T15:51:00.762Z,67.20
2023-08-27T15:54:03.920Z,67.70
2023-08-27T15:57:08.343Z,67.70
2023-08-27T16:00:13.008Z,67.50
2023-08-27T16:03:16.495Z,67.80
2023-08-27T16:06:20.798Z,68.50
2023-08-27T16:09:24.286Z,68.10
2023-08-27T16:12:29.940Z,67.10
2023-08-27T16:15:33.026Z,67.30
2023-08-27T16:18:36.713Z,67.80
2023-08-27T16:21:39.982Z,67.80
2023-08-27T16:24:45.732Z,67.60
2023-08-27T16:27:50.131Z,67.40
2023-08-27T16:30:54.962Z,67.70
2023-08-27T16:33:58.008Z,67.80
2023-08-27T16:37:01.532Z,68.00
2023-08-27T16:40:07.076Z,68.90
2023-08-27T16:43:12.054Z,68.60
2023-08-27T16:46:15.739Z,68.80
2023-08-27T16:49:18.776Z,69.10
2023-08-27T16:52:21.881Z,69.20
2023-08-27T16:55:25.073Z,69.50
2023-08-27T16:58:31.977Z,69.10
2023-08-27T17:01:35.279Z,69.30
2023-08-27T17:04:38.358Z,69.50
2023-08-27T17:07:41.692Z,69.70
2023-08-27T17:10:49.053Z,69.80
2023-08-27T17:13:53.457Z,69.80
2023-08-27T17:16:56.573Z,69.80
2023-08-27T17:19:59.688Z,69.90
2023-08-27T17:23:02.764Z,70.10
2023-08-27T17:26:06.140Z,70.50
2023-08-27T17:29:10.720Z,70.40
2023-08-27T17:32:13.900Z,70.50
2023-08-27T17:35:17.124Z,70.90
2023-08-27T17:38:20.446Z,70.90
2023-08-27T17:41:29.449Z,71.00
2023-08-27T17:44:33.937Z,71.10
2023-08-27T17:47:37.155Z,71.40
2023-08-27T17:50:40.815Z,71.50
2023-08-27T17:53:44.125Z,71.50
2023-08-27T17:56:47.267Z,71.60
2023-08-27T17:59:51.905Z,71.70
2023-08-27T18:02:55.905Z,72.50
2023-08-27T18:05:59.531Z,72.30
2023-08-27T18:09:02.948Z,72.30
2023-08-27T18:12:06.890Z,72.60
2023-08-27T18:15:12.961Z,72.80
2023-08-27T18:18:16.426Z,72.90
2023-08-27T18:21:19.859Z,73.00
2023-08-27T18:24:22.981Z,73.00
2023-08-27T18:27:26.107Z,73.20
2023-08-27T18:30:32.366Z,73.30
2023-08-27T18:33:36.346Z,73.20
2023-08-27T18:36:39.598Z,73.30
2023-08-27T18:39:42.713Z,73.40
2023-08-27T18:42:45.831Z,73.80
2023-08-27T18:45:50.377Z,73.90
2023-08-27T18:48:53.513Z,73.80
2023-08-27T18:51:57.434Z,74.00
2023-08-27T18:55:04.193Z,74.10
2023-08-27T18:58:07.436Z,74.20
2023-08-27T19:01:12.361Z,74.30
2023-08-27T19:04:15.506Z,74.30
2023-08-27T19:07:18.672Z,74.30
2023-08-27T19:10:24.950Z,75.00
2023-08-27T19:13:28.749Z,74.90
2023-08-27T19:16:33.239Z,75.10
2023-08-27T19:19:36.389Z,75.20
2023-08-27T19:22:40.353Z,75.10
2023-08-27T19:25:44.193Z,75.20
2023-08-27T19:28:47.312Z,75.80
2023-08-27T19:31:51.790Z,75.80
2023-08-27T19:34:56.911Z,75.70
2023-08-27T19:38:01.531Z,75.80
2023-08-27T19:41:04.926Z,76.20
2023-08-27T19:44:08.208Z,76.20
2023-08-27T19:47:15.628Z,76.20
2023-08-27T19:50:18.839Z,76.20
2023-08-27T19:53:23.976Z,76.20
2023-08-27T19:56:27.089Z,76.20
2023-08-27T19:59:30.203Z,76.20
2023-08-27T20:02:34.801Z,76.20
2023-08-27T20:05:39.022Z,76.20
2023-08-27T20:08:42.935Z,76.50
2023-08-27T20:11:45.991Z,76.50
2023-08-27T20:14:49.209Z,76.60
2023-08-27T20:17:53.685Z,76.80
2023-08-27T20:20:57.130Z,76.80
2023-08-27T20:24:00.729Z,77.20
2023-08-27T20:27:04.163Z,77.20
2023-08-27T20:30:09.151Z,77.30
2023-08-27T20:33:13.681Z,77.70
2023-08-27T20:36:20.044Z,77.60
2023-08-27T20:39:24.576Z,77.60
2023-08-27T20:42:29.512Z,77.90
2023-08-27T20:45:32.798Z,77.90
2023-08-27T20:48:37.535Z,78.00
2023-08-27T20:51:40.580Z,77.90
2023-08-27T20:54:44.035Z,77.90
2023-08-27T20:57:47.143Z,77.80
2023-08-27T21:00:50.318Z,77.50
2023-08-27T21:03:54.798Z,77.50
2023-08-27T21:06:58.114Z,77.20
2023-08-27T21:10:01.194Z,77.20
2023-08-27T21:13:04.845Z,77.00
2023-08-27T21:16:10.158Z,76.90
2023-08-27T21:19:14.642Z,76.80
2023-08-27T21:22:17.862Z,76.50
2023-08-27T21:25:20.924Z,76.50
2023-08-27T21:28:27.114Z,76.30
2023-08-27T21:31:47.888Z,76.30
2023-08-27T21:34:56.031Z,76.10
2023-08-27T21:37:59.324Z,75.70
2023-08-27T21:41:02.450Z,75.50
2023-08-27T21:44:05.760Z,75.30
2023-08-27T21:47:08.965Z,75.20
2023-08-27T21:50:14.534Z,75.30
2023-08-27T21:53:17.644Z,75.40
2023-08-27T21:56:20.809Z,75.10
2023-08-27T21:59:24.263Z,75.30
2023-08-27T22:02:27.712Z,75.20
2023-08-27T22:05:32.165Z,75.30
2023-08-27T22:08:35.326Z,75.30
2023-08-27T22:11:38.419Z,75.30
2023-08-27T22:14:43.302Z,75.20
2023-08-27T22:17:46.404Z,75.20
2023-08-27T22:20:50.936Z,75.20
2023-08-27T22:23:56.189Z,75.30
2023-08-27T22:26:59.273Z,75.30
2023-08-27T22:30:04.688Z,75.30
2023-08-27T22:33:07.782Z,75.50
2023-08-27T22:36:12.365Z,75.40
2023-08-27T22:39:15.405Z,75.60
2023-08-27T22:42:18.504Z,75.70
2023-08-27T22:45:21.709Z,75.90
2023-08-27T22:48:24.902Z,75.90
2023-08-27T22:51:34.197Z,76.00
2023-08-27T22:54:37.324Z,76.00
2023-08-27T22:57:41.093Z,75.90
2023-08-27T23:00:44.341Z,75.50
2023-08-27T23:03:47.640Z,75.50
2023-08-27T23:06:52.364Z,75.50
2023-08-27T23:09:55.485Z,75.40
2023-08-27T23:12:59.535Z,75.10
2023-08-27T23:16:03.403Z,74.90
2023-08-27T23:19:06.610Z,74.80
2023-08-27T23:22:11.091Z,74.30
2023-08-27T23:25:14.269Z,74.00
2023-08-27T23:28:18.845Z,73.50
2023-08-27T23:31:22.147Z,73.30
2023-08-27T23:34:25.289Z,73.20
2023-08-27T23:37:29.797Z,73.00
2023-08-27T23:40:32.841Z,73.30
2023-08-27T23:43:37.101Z,73.50
2023-08-27T23:46:40.177Z,73.90
2023-08-27T23:49:43.323Z,74.00
2023-08-27T23:52:47.876Z,74.10
2023-08-27T23:55:51.293Z,74.30
2023-08-27T23:58:56.740Z,73.30
